Time;durP1;ratioP1;P1;durP2;ratioP2;P2;SDS_P1;SDS_P2;PMS_P1;PMS_P2;Temp;Humidity;BMP_temperature;BMP_pressure;BME280_temperature;BME280_humidity;BME280_pressure;Samples;Min_cycle;Max_cycle;Signal;HPM_P1;HPM_P2
2022/01/28 00:01:04;;;;;;;14.75;2.35;;;5.50;99.90;;;6.22;100.00;101604.78;5033523;28;20040;-82
2022/01/28 00:03:40;;;;;;;14.50;2.70;;;5.60;99.90;;;6.30;100.00;101624.31;5031419;28;20031;-82
2022/01/28 00:06:07;;;;;;;10.57;2.13;;;5.60;99.90;;;6.21;100.00;101608.69;5031445;28;20187;-80
2022/01/28 00:08:33;;;;;;;15.73;3.30;;;5.60;99.90;;;6.19;100.00;101614.56;5032846;28;20408;-82
2022/01/28 00:11:05;;;;;;;12.82;1.83;;;5.60;99.90;;;6.18;100.00;101620.38;5039767;28;20079;-81
2022/01/28 00:13:35;;;;;;;15.43;2.88;;;5.60;99.90;;;6.23;100.00;101614.72;5034680;28;20148;-82
2022/01/28 00:16:44;;;;;;;12.93;2.00;;;5.60;99.90;;;6.23;100.00;101634.16;5034840;28;20028;-84
2022/01/28 00:38:07;;;;;;;13.57;2.75;;;5.60;99.90;;;6.25;100.00;101656.88;5054839;28;20036;-81
2022/01/28 00:40:34;;;;;;;12.00;2.75;;;5.60;99.90;;;6.24;100.00;101658.84;5039295;28;20056;-82
2022/01/28 00:43:03;;;;;;;12.85;1.95;;;5.60;99.90;;;6.27;100.00;101660.16;5039699;28;20025;-84
2022/01/28 00:45:29;;;;;;;15.23;2.55;;;5.60;99.90;;;6.29;100.00;101669.03;5039536;28;20060;-81
2022/01/28 00:47:55;;;;;;;11.27;2.53;;;5.60;99.90;;;6.24;100.00;101664.38;5039757;28;20541;-82
2022/01/28 00:50:23;;;;;;;10.98;2.38;;;5.50;99.90;;;6.23;100.00;101659.13;5057994;28;20039;-81
2022/01/28 00:52:53;;;;;;;15.35;3.30;;;5.50;99.90;;;6.21;100.00;101666.94;5039360;28;20021;-82
2022/01/28 00:55:19;;;;;;;14.13;2.63;;;5.50;99.90;;;6.28;100.00;101670.97;5039288;28;20094;-84
2022/01/28 00:57:45;;;;;;;15.60;3.17;;;5.50;99.90;;;6.22;100.00;101686.06;5056860;28;20115;-82
2022/01/28 01:00:13;;;;;;;15.82;2.53;;;5.50;99.90;;;6.18;100.00;101703.63;5056648;28;20025;-83
2022/01/28 01:02:39;;;;;;;15.38;2.88;;;5.40;99.90;;;6.11;100.00;101711.50;5056246;28;20693;-82
2022/01/28 01:05:07;;;;;;;15.27;2.55;;;5.30;99.90;;;5.87;100.00;101708.00;5037174;28;20083;-83
2022/01/28 01:07:33;;;;;;;13.35;2.42;;;5.20;99.90;;;5.74;100.00;101727.03;5055264;28;20025;-85
2022/01/28 01:09:59;;;;;;;22.95;2.45;;;5.10;99.90;;;5.65;100.00;101739.88;5054571;28;20036;-84
2022/01/28 01:12:27;;;;;;;9.43;2.05;;;4.90;99.90;;;5.55;100.00;101739.22;5055744;28;20405;-83
2022/01/28 01:14:53;;;;;;;10.80;1.98;;;4.80;99.90;;;5.52;100.00;101726.75;5055367;28;20086;-84
2022/01/28 01:23:12;;;;;;;12.07;2.20;;;4.80;99.90;;;5.63;100.00;101735.78;5055404;28;20044;-83
2022/01/28 01:28:13;;;;;;;11.73;2.47;;;5.00;99.90;;;5.79;100.00;101724.16;5034902;28;20034;-85
2022/01/28 01:30:42;;;;;;;20.90;2.83;;;5.00;99.90;;;5.79;100.00;101726.09;5035053;28;20105;-82
2022/01/28 01:33:10;;;;;;;23.63;3.58;;;5.10;99.90;;;5.88;100.00;101731.81;5033514;28;20080;-82
2022/01/28 01:35:40;;;;;;;16.75;2.53;;;5.20;99.90;;;5.81;100.00;101732.19;5034953;28;20037;-81
2022/01/28 01:38:08;;;;;;;15.82;3.47;;;5.10;99.90;;;5.82;100.00;101740.19;5033485;28;20036;-83
2022/01/28 01:40:51;;;;;;;11.93;2.78;;;5.10;99.90;;;5.87;100.00;101738.50;5033352;28;20075;-82
2022/01/28 01:46:26;;;;;;;20.88;3.33;;;5.10;99.90;;;5.74;100.00;101724.25;5054853;28;20372;-83
2022/01/28 01:54:14;;;;;;;15.10;2.50;;;5.00;99.90;;;5.73;100.00;101733.69;5054635;28;20043;-81
2022/01/28 01:56:40;;;;;;;17.80;3.05;;;5.00;99.90;;;5.72;100.00;101733.97;5036504;28;20072;-84
2022/01/28 01:59:09;;;;;;;19.08;2.70;;;4.90;99.90;;;5.66;100.00;101729.63;5037139;28;20467;-83
2022/01/28 02:01:38;;;;;;;9.73;2.05;;;4.90;99.90;;;5.62;100.00;101725.81;5051794;28;20040;-82
2022/01/28 02:04:06;;;;;;;25.20;5.03;;;4.90;99.90;;;5.60;100.00;101733.59;5072795;28;20039;-86
2022/01/28 02:06:38;;;;;;;17.90;2.65;;;4.90;99.90;;;5.73;100.00;101747.53;5068963;28;20092;-81
2022/01/28 02:09:06;;;;;;;11.23;2.17;;;5.00;99.90;;;5.68;100.00;101735.72;5038189;28;20051;-82
2022/01/28 02:11:35;;;;;;;21.02;2.83;;;5.00;99.90;;;5.65;100.00;101730.78;5038167;28;20091;-85
2022/01/28 02:14:02;;;;;;;20.15;2.47;;;5.00;99.90;;;5.65;100.00;101741.84;5039287;28;20021;-81
2022/01/28 02:16:28;;;;;;;15.73;2.80;;;5.00;99.90;;;5.63;100.00;101744.91;5057331;28;20537;-84
2022/01/28 02:18:56;;;;;;;25.73;4.50;;;4.90;99.90;;;5.61;100.00;101755.50;5057099;28;20021;-84
2022/01/28 02:21:22;;;;;;;13.73;3.03;;;4.90;99.90;;;5.74;100.00;101765.84;5039548;28;20029;-84
2022/01/28 02:23:53;;;;;;;17.15;3.08;;;5.00;99.90;;;5.74;100.00;101771.38;5041817;28;20080;-84
2022/01/28 02:26:20;;;;;;;16.90;3.25;;;5.00;99.90;;;5.75;100.00;101775.78;5035955;28;20089;-81
2022/01/28 02:28:52;;;;;;;15.85;2.80;;;5.10;99.90;;;5.72;100.00;101792.19;5043909;28;20033;-83
2022/01/28 02:31:22;;;;;;;14.90;2.88;;;5.10;99.90;;;5.74;100.00;101807.41;5041279;28;20025;-84
2022/01/28 02:33:51;;;;;;;18.95;2.53;;;5.10;99.90;;;5.72;100.00;101801.31;5025264;28;20528;-81
2022/01/28 02:36:17;;;;;;;11.75;3.20;;;5.00;99.90;;;5.62;100.00;101804.22;5041341;28;20104;-85
2022/01/28 02:38:43;;;;;;;16.17;2.75;;;5.00;99.90;;;5.67;100.00;101803.34;5040961;28;20033;-83
2022/01/28 02:41:18;;;;;;;16.30;3.60;;;5.00;99.90;;;5.69;100.00;101813.00;5039379;28;20113;-85
2022/01/28 02:46:15;;;;;;;14.25;2.95;;;5.00;99.90;;;5.65;100.00;101809.19;5040525;28;20060;-84
2022/01/28 02:49:02;;;;;;;15.65;2.42;;;5.00;99.90;;;5.70;100.00;101816.63;5021933;28;20049;-85
2022/01/28 02:51:28;;;;;;;21.55;3.78;;;5.00;99.90;;;5.72;100.00;101822.69;5038904;28;20030;-84
2022/01/28 02:53:57;;;;;;;17.90;2.20;;;5.00;99.90;;;5.59;100.00;101831.72;5040819;28;20465;-84
2022/01/28 02:56:36;;;;;;;14.50;3.08;;;4.90;99.90;;;5.54;100.00;101842.88;5038705;28;20554;-84
2022/01/28 02:59:02;;;;;;;22.15;3.35;;;4.90;99.90;;;5.48;100.00;101836.56;5036772;28;20038;-86
2022/01/28 03:01:29;;;;;;;20.02;2.88;;;4.80;99.90;;;5.43;100.00;101831.06;5034895;28;20043;-87
2022/01/28 03:04:03;;;;;;;13.38;2.75;;;4.70;99.90;;;5.42;100.00;101832.22;5017910;28;20049;-83
2022/01/28 03:06:29;;;;;;;12.05;2.83;;;4.70;99.90;;;5.35;100.00;101840.06;5034695;28;20033;-82
2022/01/28 03:09:03;;;;;;;17.52;2.85;;;4.60;99.90;;;5.43;100.00;101838.56;5034259;28;20033;-82
2022/01/28 03:11:48;;;;;;;20.02;3.90;;;4.60;99.90;;;5.28;100.00;101836.81;5036309;28;20527;-82
2022/01/28 03:14:21;;;;;;;15.50;3.35;;;4.60;99.90;;;5.22;100.00;101829.66;5035642;28;20053;-82
2022/01/28 03:17:26;;;;;;;21.40;3.45;;;4.50;99.90;;;5.29;100.00;101838.47;5036475;28;20038;-83
2022/01/28 03:19:52;;;;;;;18.58;3.95;;;4.50;99.90;;;5.32;100.00;101846.19;5035275;28;20041;-81
2022/01/28 03:22:18;;;;;;;20.80;3.70;;;4.60;99.90;;;5.30;100.00;101848.41;5034753;28;20087;-86
2022/01/28 03:24:50;;;;;;;18.85;3.35;;;4.60;99.90;;;5.35;100.00;101851.13;5034158;28;20056;-84
2022/01/28 03:27:31;;;;;;;14.90;2.58;;;4.60;99.90;;;5.39;100.00;101852.22;5036367;28;20024;-84
2022/01/28 03:29:57;;;;;;;20.48;3.35;;;4.60;99.90;;;5.31;100.00;101845.34;5036454;28;20075;-81
2022/01/28 03:32:23;;;;;;;13.52;2.65;;;4.60;99.90;;;5.37;100.00;101848.88;5037863;28;20078;-84
2022/01/28 03:34:49;;;;;;;15.98;3.10;;;4.70;99.90;;;5.42;100.00;101848.84;5038901;28;20063;-84
2022/01/28 03:37:19;;;;;;;13.48;3.83;;;4.70;99.90;;;5.42;100.00;101836.94;5036421;28;20051;-82
2022/01/28 03:39:57;;;;;;;20.50;4.85;;;4.70;99.90;;;5.55;100.00;101862.00;5055531;28;20051;-83
2022/01/28 03:42:24;;;;;;;17.90;3.00;;;4.80;99.90;;;5.52;100.00;101859.78;5036101;28;20033;-81
2022/01/28 03:44:49;;;;;;;16.45;3.05;;;4.80;99.90;;;5.48;100.00;101886.47;5053550;28;20037;-82
2022/01/28 03:47:15;;;;;;;20.95;2.63;;;4.90;99.90;;;5.43;100.00;101880.94;5031858;28;20088;-84
2022/01/28 03:49:45;;;;;;;21.77;3.17;;;4.90;99.90;;;5.43;100.00;101889.25;5035177;28;20542;-82
2022/01/28 03:52:11;;;;;;;25.02;3.42;;;4.80;99.90;;;5.47;100.00;101901.41;5033742;28;20204;-82
2022/01/28 03:54:37;;;;;;;15.23;2.97;;;4.90;99.90;;;5.46;100.00;101902.53;5033863;28;20028;-84
2022/01/28 03:57:04;;;;;;;17.27;2.90;;;4.80;99.90;;;5.42;100.00;101906.19;5033980;28;20049;-82
2022/01/28 03:59:36;;;;;;;15.35;2.97;;;4.70;99.90;;;5.44;100.00;101910.31;5034536;28;20403;-82
2022/01/28 04:02:07;;;;;;;18.95;2.45;;;4.70;99.90;;;5.43;100.00;101914.19;5035044;28;20025;-84
2022/01/28 04:12:38;;;;;;;19.33;4.55;;;4.70;99.90;;;5.39;100.00;101956.66;5054555;28;20036;-82
2022/01/28 04:15:22;;;;;;;17.48;2.40;;;4.70;99.90;;;5.29;100.00;101957.59;5058232;28;20036;-81
2022/01/28 04:17:51;;;;;;;16.95;2.85;;;4.60;99.90;;;5.20;100.00;101971.22;5034400;28;20120;-81
2022/01/28 04:20:18;;;;;;;15.23;2.70;;;4.50;99.90;;;5.18;100.00;101972.63;5055619;28;20052;-82
2022/01/28 04:22:44;;;;;;;17.85;3.65;;;4.50;99.90;;;5.20;100.00;101965.69;5054794;28;20091;-82
2022/01/28 04:25:11;;;;;;;15.02;2.67;;;4.40;99.90;;;5.17;100.00;101957.94;5036596;28;20456;-81
2022/01/28 04:27:36;;;;;;;20.77;3.10;;;4.40;99.90;;;5.15;100.00;101964.91;5036614;28;20168;-81
2022/01/28 04:30:04;;;;;;;22.38;2.42;;;4.30;99.90;;;5.03;100.00;101972.75;5034951;28;20061;-81
2022/01/28 04:32:31;;;;;;;17.45;3.47;;;4.30;99.90;;;5.08;100.00;101970.78;5037130;28;20021;-82
2022/01/28 04:34:59;;;;;;;19.58;3.83;;;4.30;99.90;;;5.07;100.00;101971.06;5020621;28;20044;-80
2022/01/28 04:37:36;;;;;;;18.42;4.25;;;4.30;99.90;;;5.12;100.00;101988.47;5036103;28;20076;-81
2022/01/28 04:40:26;;;;;;;15.95;3.10;;;4.30;99.90;;;5.10;100.00;101965.78;5038384;28;20033;-81
2022/01/28 04:48:17;;;;;;;18.05;2.88;;;4.30;99.90;;;5.02;100.00;101971.94;5037037;28;20119;-83
2022/01/28 04:51:10;;;;;;;14.95;2.63;;;4.30;99.90;;;5.04;100.00;101979.97;5036408;28;20104;-81
2022/01/28 05:27:51;;;;;;;14.50;3.08;;;4.20;99.90;;;5.02;100.00;102007.09;5053596;28;20033;-82
2022/01/28 05:30:17;;;;;;;21.98;3.88;;;4.20;99.90;;;4.97;100.00;102007.97;5055824;28;20029;-83
2022/01/28 05:32:44;;;;;;;23.92;3.15;;;4.20;99.90;;;5.06;100.00;102008.19;5057156;28;20151;-82
2022/01/28 05:35:12;;;;;;;18.48;3.30;;;4.30;99.90;;;5.07;100.00;102018.97;5056251;28;20107;-83
2022/01/28 05:37:38;;;;;;;14.32;3.67;;;4.30;99.90;;;5.04;100.00;102007.66;5039275;28;20025;-83
2022/01/28 05:40:05;;;;;;;19.45;3.28;;;4.30;99.90;;;5.10;100.00;102012.03;5039182;28;20032;-83
2022/01/28 05:42:32;;;;;;;20.35;3.60;;;4.40;99.90;;;5.15;100.00;102012.00;5057670;28;20025;-80
2022/01/28 05:45:06;;;;;;;22.15;4.80;;;4.40;99.90;;;5.13;100.00;102006.75;5039060;28;20077;-81
2022/01/28 05:47:35;;;;;;;30.27;4.28;;;4.40;99.90;;;5.04;100.00;102002.91;5056520;28;20028;-81
2022/01/28 05:50:04;;;;;;;29.95;5.20;;;4.30;99.90;;;4.92;100.00;102005.22;5038645;28;20033;-78
2022/01/28 05:52:31;;;;;;;16.13;4.05;;;4.30;99.90;;;4.95;100.00;102023.19;5056718;28;20029;-80
2022/01/28 05:54:58;;;;;;;19.77;3.55;;;4.20;99.90;;;4.99;100.00;102036.19;5038986;28;20119;-80
2022/01/28 05:57:27;;;;;;;26.90;3.83;;;4.30;99.90;;;5.01;100.00;102038.69;5038112;28;20025;-81
2022/01/28 05:59:53;;;;;;;19.08;2.90;;;4.30;99.90;;;5.05;100.00;102036.97;5052468;28;20163;-81
2022/01/28 06:02:18;;;;;;;25.92;4.18;;;4.30;99.90;;;5.06;100.00;102036.72;5038424;28;20091;-86
2022/01/28 06:04:45;;;;;;;19.77;4.10;;;4.40;99.90;;;5.04;100.00;102044.47;5038374;28;20127;-83
2022/01/28 06:07:12;;;;;;;20.35;4.68;;;4.30;99.90;;;4.97;100.00;102057.81;5055340;28;20067;-82
2022/01/28 06:09:38;;;;;;;23.00;4.65;;;4.30;99.90;;;4.97;100.00;102068.91;5040179;28;20051;-82
2022/01/28 06:12:04;;;;;;;33.25;6.28;;;4.30;99.90;;;4.97;100.00;102060.59;5042332;28;20037;-85
2022/01/28 06:14:30;;;;;;;26.67;4.15;;;4.30;99.90;;;4.98;100.00;102078.84;5048352;28;20054;-85
2022/01/28 06:16:59;;;;;;;28.42;4.03;;;4.30;99.90;;;5.00;100.00;102078.56;5049010;28;20094;-84
2022/01/28 06:19:31;;;;;;;17.95;4.07;;;4.30;99.90;;;5.00;100.00;102081.34;5040702;28;20112;-83
2022/01/28 06:22:00;;;;;;;20.45;4.38;;;4.30;99.90;;;5.05;100.00;102082.13;5054774;28;20166;-81
2022/01/28 06:24:32;;;;;;;25.60;4.53;;;4.40;99.90;;;5.06;100.00;102094.88;5018137;28;20033;-82
2022/01/28 06:26:58;;;;;;;22.48;4.20;;;4.40;99.90;;;5.10;100.00;102092.34;5028475;28;20168;-83
2022/01/28 06:29:23;;;;;;;25.73;5.25;;;4.40;99.90;;;5.10;100.00;102103.44;5037372;28;20052;-83
2022/01/28 06:31:49;;;;;;;22.20;4.85;;;4.40;99.90;;;5.06;100.00;102105.94;5055500;28;20442;-83
2022/01/28 06:34:15;;;;;;;25.45;3.95;;;4.40;99.90;;;5.08;100.00;102106.47;5055220;28;20476;-81
2022/01/28 06:36:41;;;;;;;27.15;4.60;;;4.30;99.90;;;5.11;100.00;102108.66;5055249;28;20029;-83
2022/01/28 06:39:07;;;;;;;23.85;5.22;;;4.40;99.90;;;5.05;100.00;102103.44;5038136;28;20029;-82
2022/01/28 06:41:33;;;;;;;33.58;4.20;;;4.30;99.90;;;5.08;100.00;102103.72;5055947;28;20021;-83
2022/01/28 06:43:59;;;;;;;22.85;3.53;;;4.30;99.90;;;4.95;100.00;102107.09;5054937;28;20029;-82
2022/01/28 06:46:27;;;;;;;16.35;3.60;;;4.20;99.90;;;4.86;100.00;102121.84;5055854;28;20025;-83
2022/01/28 06:48:53;;;;;;;16.23;3.47;;;4.20;99.90;;;4.87;100.00;102121.56;5052788;28;20090;-81
2022/01/28 06:51:22;;;;;;;14.65;3.20;;;4.10;99.90;;;4.90;100.00;102132.06;5039913;28;20029;-80
2022/01/28 06:53:48;;;;;;;19.42;3.80;;;4.10;99.90;;;4.92;100.00;102127.06;5035614;28;20515;-82
2022/01/28 06:56:13;;;;;;;17.67;3.35;;;4.20;99.90;;;4.98;100.00;102130.63;5039105;28;20037;-82
2022/01/28 06:58:39;;;;;;;21.70;3.83;;;4.20;99.90;;;4.91;100.00;102130.97;5037195;28;20543;-83
2022/01/28 07:01:09;;;;;;;20.55;4.07;;;4.20;99.90;;;5.00;100.00;102140.31;5037630;28;20033;-81
2022/01/28 07:03:35;;;;;;;18.83;3.60;;;4.20;99.90;;;4.97;100.00;102140.91;5037153;28;20072;-80
2022/01/28 07:06:10;;;;;;;17.23;3.80;;;4.20;99.90;;;4.99;100.00;102152.50;5037379;28;20052;-78
2022/01/28 07:08:38;;;;;;;21.53;3.30;;;4.20;99.90;;;5.00;100.00;102151.41;5055047;28;20429;-78
2022/01/28 07:11:03;;;;;;;11.60;2.95;;;4.30;99.90;;;4.98;100.00;102153.59;5054829;28;20029;-80
2022/01/28 07:13:29;;;;;;;22.48;3.60;;;4.30;99.90;;;4.92;100.00;102156.69;5054808;28;20077;-86
2022/01/28 07:15:55;;;;;;;21.80;3.47;;;4.20;99.90;;;4.93;100.00;102150.88;5036834;28;20172;-81
2022/01/28 07:18:23;;;;;;;19.52;3.95;;;4.20;99.90;;;4.98;100.00;102159.16;5054189;28;20063;-85
2022/01/28 07:20:49;;;;;;;21.85;4.05;;;4.20;99.90;;;4.92;100.00;102153.91;5036734;28;20052;-83
2022/01/28 07:23:15;;;;;;;21.67;3.67;;;4.20;99.90;;;4.90;100.00;102164.44;5050797;28;20025;-84
2022/01/28 07:25:41;;;;;;;24.27;3.60;;;4.20;99.90;;;4.97;100.00;102162.22;5031918;28;20026;-82
2022/01/28 07:28:08;;;;;;;12.50;3.15;;;4.20;99.90;;;5.00;100.00;102169.94;5031836;28;20036;-83
2022/01/28 07:30:34;;;;;;;28.58;5.63;;;4.20;99.90;;;5.00;100.00;102164.41;5036827;28;20026;-78
2022/01/28 07:33:01;;;;;;;19.10;2.60;;;4.20;99.90;;;4.95;100.00;102169.97;5027340;28;20564;-86
2022/01/28 07:35:27;;;;;;;18.65;3.78;;;4.20;99.90;;;4.92;100.00;102165.00;5033774;28;20388;-84
2022/01/28 07:37:53;;;;;;;20.92;4.75;;;4.20;99.90;;;4.91;100.00;102172.50;5033775;28;20030;-86
2022/01/28 07:40:19;;;;;;;22.17;4.78;;;4.20;99.90;;;4.84;100.00;102169.19;5036020;28;20080;-85
2022/01/28 07:42:45;;;;;;;19.33;4.82;;;4.10;99.90;;;4.94;100.00;102165.56;5036113;28;20084;-85
2022/01/28 07:45:14;;;;;;;13.90;3.72;;;4.20;99.90;;;4.95;100.00;102169.97;5035040;28;20029;-87
2022/01/28 07:47:40;;;;;;;20.80;3.97;;;4.20;99.90;;;4.91;100.00;102172.50;5020065;28;20505;-87
2022/01/28 07:50:09;;;;;;;26.13;4.18;;;4.10;99.90;;;4.78;100.00;102176.66;5038701;28;20030;-85
2022/01/28 07:52:39;;;;;;;36.58;5.60;;;4.10;99.90;;;4.79;100.00;102183.03;5035536;28;20075;-82
2022/01/28 07:55:10;;;;;;;20.73;4.43;;;4.10;99.90;;;4.85;100.00;102181.09;5034663;28;20061;-82
2022/01/28 07:57:41;;;;;;;21.40;3.78;;;4.20;99.90;;;4.91;100.00;102191.03;5031852;28;20025;-84
2022/01/28 08:00:13;;;;;;;19.45;4.57;;;4.20;99.90;;;4.91;100.00;102186.34;5032661;28;20209;-83
2022/01/28 08:02:42;;;;;;;18.63;4.00;;;4.20;99.90;;;4.91;100.00;102185.50;5035343;28;20095;-81
2022/01/28 08:05:12;;;;;;;17.50;4.28;;;4.20;99.90;;;4.95;100.00;102186.56;5033854;28;20081;-82
2022/01/28 08:07:38;;;;;;;23.08;4.63;;;4.20;99.90;;;4.92;100.00;102198.22;5016406;28;20026;-83
2022/01/28 08:10:05;;;;;;;20.00;4.30;;;4.20;99.90;;;4.94;100.00;102205.16;5036601;28;20053;-83
2022/01/28 08:12:31;;;;;;;19.25;4.15;;;4.30;99.90;;;5.01;100.00;102207.63;5017312;28;20026;-85
2022/01/28 08:14:56;;;;;;;17.67;3.92;;;4.30;99.90;;;5.05;100.00;102209.53;5036434;28;20456;-83
2022/01/28 08:17:22;;;;;;;16.40;4.25;;;4.30;99.90;;;5.13;100.00;102213.66;5034654;28;20484;-84
2022/01/28 08:19:51;;;;;;;24.42;3.80;;;4.30;99.90;;;5.22;100.00;102209.16;5018603;28;20033;-83
2022/01/28 08:22:17;;;;;;;9.50;3.40;;;4.40;99.90;;;5.30;100.00;102216.88;5033973;28;20037;-83
2022/01/28 08:24:43;;;;;;;15.82;3.55;;;4.50;99.90;;;5.42;100.00;102214.63;5034748;28;20397;-84
2022/01/28 08:27:14;;;;;;;14.95;2.88;;;4.50;99.90;;;5.38;100.00;102218.22;5051069;28;20025;-83
2022/01/28 08:29:40;;;;;;;19.83;3.63;;;4.50;99.90;;;5.39;100.00;102220.72;5036072;28;20021;-83
2022/01/28 08:32:07;;;;;;;21.30;3.42;;;4.60;99.90;;;5.52;100.00;102225.63;5053851;28;20025;-81
2022/01/28 08:34:32;;;;;;;23.08;4.90;;;4.70;99.90;;;5.58;100.00;102238.34;5054652;28;20029;-84
2022/01/28 08:37:03;;;;;;;15.60;3.40;;;4.70;99.90;;;5.63;100.00;102237.47;5037507;28;20369;-80
2022/01/28 08:39:31;;;;;;;19.23;3.42;;;4.70;99.90;;;5.61;100.00;102243.31;5054076;28;20376;-84
2022/01/28 08:41:58;;;;;;;24.05;4.45;;;4.80;99.90;;;5.61;100.00;102251.63;5038302;28;20036;-82
2022/01/28 08:44:26;;;;;;;21.95;3.72;;;4.80;99.90;;;5.57;100.00;102252.50;5056130;28;20033;-82
2022/01/28 08:46:54;;;;;;;17.77;3.42;;;4.80;99.90;;;5.62;100.00;102249.69;5037782;28;20047;-84
2022/01/28 08:49:21;;;;;;;25.10;3.85;;;4.80;99.90;;;5.75;100.00;102255.41;5038002;28;20056;-81
2022/01/28 08:51:48;;;;;;;15.20;3.83;;;4.90;99.90;;;5.83;100.00;102260.38;5038333;28;20025;-81
2022/01/28 08:54:15;;;;;;;16.80;3.90;;;5.00;99.90;;;5.84;100.00;102262.00;5037754;28;20377;-85
2022/01/28 08:56:41;;;;;;;21.98;3.50;;;5.00;99.90;;;5.75;100.00;102263.72;5053807;28;20025;-82
2022/01/28 08:59:07;;;;;;;24.25;3.97;;;5.00;99.90;;;5.72;100.00;102266.25;5056632;28;20162;-83
2022/01/28 09:01:33;;;;;;;19.35;3.92;;;4.90;99.90;;;5.61;100.00;102268.28;5060787;28;20083;-82
2022/01/28 09:04:01;;;;;;;17.88;3.50;;;4.90;99.90;;;5.61;100.00;102268.28;5039378;28;20040;-83
2022/01/28 09:06:27;;;;;;;16.30;4.25;;;4.90;99.90;;;5.89;100.00;102265.91;5039369;28;20021;-82
2022/01/28 09:08:55;;;;;;;21.80;4.15;;;5.10;99.90;;;6.16;100.00;102271.81;5055480;28;20469;-82
2022/01/28 09:13:48;;;;;;;18.08;3.42;;;5.60;99.90;;;6.49;100.00;102278.47;5057039;28;20032;-80
2022/01/28 09:16:17;;;;;;;14.55;3.70;;;5.60;99.90;;;6.45;100.00;102280.19;5056943;28;20028;-83
2022/01/28 09:18:43;;;;;;;20.55;3.90;;;5.60;99.90;;;6.46;100.00;102279.03;5057109;28;20021;-84
2022/01/28 09:21:12;;;;;;;15.52;3.60;;;5.70;99.90;;;6.74;100.00;102297.69;5056661;28;20032;-82
2022/01/28 09:23:38;;;;;;;19.50;5.13;;;5.90;99.90;;;7.11;100.00;102286.72;5038637;28;20502;-81
2022/01/28 09:26:04;;;;;;;16.33;2.90;;;6.10;99.90;;;7.28;98.38;102287.06;5030364;28;20087;-82
2022/01/28 09:28:30;;;;;;;16.58;3.00;;;6.30;99.90;;;7.55;97.45;102296.72;5036859;28;20029;-82
2022/01/28 09:30:57;;;;;;;20.67;3.63;;;6.60;99.90;;;7.97;96.96;102293.91;5037136;28;20022;-82
2022/01/28 09:33:24;;;;;;;17.92;4.47;;;6.80;99.90;;;7.62;92.30;102302.75;5037868;28;20025;-82
2022/01/28 09:35:50;;;;;;;20.27;3.20;;;6.80;99.90;;;7.45;93.60;102305.22;5035223;28;20065;-82
2022/01/28 09:38:17;;;;;;;24.20;3.97;;;6.60;99.90;;;7.41;95.36;102299.44;5034800;28;20083;-82
2022/01/28 09:40:43;;;;;;;14.40;2.80;;;6.50;99.90;;;7.42;95.44;102295.50;5034290;28;20174;-82
2022/01/28 09:43:13;;;;;;;22.90;3.53;;;6.50;99.90;;;7.69;92.44;102294.88;5018404;28;20037;-81
2022/01/28 09:45:47;;;;;;;18.48;3.95;;;6.70;99.90;;;8.00;91.42;102298.03;5018429;28;20025;-80
2022/01/28 09:48:19;;;;;;;19.08;3.40;;;6.90;99.90;;;8.13;90.64;102298.13;5034877;28;20481;-82
2022/01/28 09:50:46;;;;;;;18.42;3.05;;;7.10;99.90;;;8.42;89.10;102282.09;5020030;28;20087;-80
2022/01/28 09:53:15;;;;;;;16.83;2.80;;;7.30;99.90;;;8.51;86.75;102298.13;5037861;28;20093;-80
2022/01/28 09:55:50;;;;;;;23.02;3.38;;;7.40;99.90;;;8.54;85.65;102303.88;5036446;28;20124;-83
2022/01/28 09:58:16;;;;;;;28.45;8.75;;;7.50;99.90;;;8.58;83.87;102304.94;5037524;28;20025;-83
2022/01/28 10:00:44;;;;;;;38.05;12.05;;;7.50;99.90;;;8.75;84.55;102305.19;5038711;28;20481;-83
2022/01/28 10:03:16;;;;;;;26.60;6.07;;;7.70;99.90;;;8.78;84.34;102320.47;5035615;28;20045;-83
2022/01/28 10:05:51;;;;;;;24.92;4.10;;;7.70;99.90;;;8.74;81.88;102325.81;5017957;28;20037;-81
2022/01/28 10:08:25;;;;;;;17.60;3.72;;;7.70;99.90;;;8.80;83.43;102318.19;5033421;28;20040;-86
2022/01/28 10:11:14;;;;;;;26.35;4.10;;;7.80;99.90;;;8.84;81.57;102303.34;5035327;28;20053;-86
2022/01/28 10:13:48;;;;;;;22.80;6.85;;;7.80;99.90;;;8.66;80.87;102312.59;5040328;28;20029;-86
2022/01/28 10:16:23;;;;;;;25.35;7.28;;;7.80;99.90;;;8.71;81.04;102318.06;5028058;28;20036;-82
2022/01/28 10:18:55;;;;;;;17.83;4.57;;;7.80;99.90;;;8.74;81.49;102313.84;5034552;28;20396;-83
2022/01/28 10:21:42;;;;;;;35.88;11.00;;;7.80;99.90;;;8.94;81.23;102314.31;5035663;28;20265;-81
2022/01/28 10:24:13;;;;;;;21.13;5.47;;;7.90;99.90;;;9.02;79.14;102316.38;5034196;28;20033;-82
2022/01/28 10:27:09;;;;;;;19.88;4.10;;;8.00;99.90;;;8.98;76.75;102325.69;5038886;28;20480;-80
2022/01/28 10:29:44;;;;;;;14.68;2.85;;;8.00;99.90;;;8.73;77.75;102315.00;5038707;28;20021;-80
2022/01/28 10:32:16;;;;;;;17.13;2.90;;;7.80;99.90;;;8.52;78.37;102333.16;5037953;28;20040;-83
2022/01/28 10:34:50;;;;;;;18.67;3.63;;;7.60;99.90;;;8.35;78.67;102317.00;5040009;28;20036;-81
2022/01/28 10:37:25;;;;;;;18.83;3.83;;;7.50;99.90;;;8.52;78.47;102320.06;5037748;28;20131;-83
2022/01/28 10:40:09;;;;;;;23.95;3.15;;;7.60;99.90;;;8.76;78.10;102318.00;5054770;28;20040;-84
2022/01/28 10:42:43;;;;;;;18.95;3.20;;;7.80;99.90;;;9.19;77.68;102310.19;5036103;28;20115;-83
2022/01/28 10:45:16;;;;;;;13.68;4.15;;;8.10;99.90;;;9.44;74.12;102312.47;5038197;28;20033;-83
2022/01/28 10:47:47;;;;;;;16.80;3.03;;;8.40;99.90;;;9.54;73.59;102317.84;5037655;28;20032;-80
2022/01/28 10:50:49;;;;;;;19.58;2.95;;;8.50;99.90;;;9.45;71.44;102318.88;5036960;28;20028;-83
2022/01/28 10:53:20;;;;;;;19.70;3.80;;;8.50;99.90;;;9.61;72.72;102320.22;5035860;28;20067;-81
2022/01/28 10:55:57;;;;;;;17.05;2.85;;;8.50;99.90;;;9.52;71.30;102322.94;5036011;28;20553;-82
2022/01/28 10:58:28;;;;;;;23.27;3.75;;;8.50;99.90;;;9.58;70.98;102320.00;5035176;28;20483;-81
2022/01/28 11:00:57;;;;;;;17.65;4.40;;;8.60;99.90;;;9.48;70.35;102323.84;5035914;28;20028;-82
2022/01/28 11:03:27;;;;;;;16.70;3.47;;;8.60;99.90;;;9.53;69.58;102318.97;5053888;28;20047;-83
2022/01/28 11:06:02;;;;;;;19.92;4.05;;;8.50;99.90;;;9.13;70.59;102319.81;5053770;28;20127;-81
2022/01/28 11:08:34;;;;;;;11.88;3.17;;;8.30;99.90;;;9.31;71.94;102323.66;5036340;28;20025;-86
2022/01/28 11:11:01;;;;;;;18.58;3.28;;;8.40;99.90;;;9.53;72.95;102329.34;5058637;28;20048;-80
2022/01/28 11:13:28;;;;;;;18.02;4.05;;;8.50;99.90;;;9.38;71.01;102341.63;5039508;28;20029;-80
2022/01/28 11:15:55;;;;;;;19.15;3.58;;;8.30;99.90;;;9.32;71.84;102340.06;5058157;28;20040;-85
2022/01/28 11:18:23;;;;;;;22.48;3.70;;;8.30;99.90;;;9.23;71.36;102341.91;5035851;28;20028;-84
2022/01/28 11:21:10;;;;;;;17.98;3.67;;;8.30;99.90;;;9.22;72.92;102339.44;5037121;28;20124;-83
2022/01/28 11:23:50;;;;;;;12.35;3.30;;;8.20;99.90;;;9.12;70.93;102351.59;5054319;28;20055;-83
2022/01/28 11:26:54;;;;;;;17.67;3.83;;;8.20;99.90;;;9.03;72.59;102339.50;5027387;28;20598;-83
2022/01/28 11:29:25;;;;;;;23.30;3.97;;;8.00;99.90;;;8.89;71.08;102344.25;5034579;28;20036;-82
2022/01/28 11:32:13;;;;;;;26.77;3.53;;;8.00;99.90;;;8.95;71.46;102337.44;5035549;28;20029;-84
2022/01/28 11:35:08;;;;;;;18.75;2.92;;;8.00;99.90;;;8.68;71.04;102321.47;5033452;28;20052;-82
2022/01/28 11:37:35;;;;;;;17.33;3.42;;;7.80;99.90;;;8.52;72.39;102316.47;5035624;28;20053;-83
2022/01/28 11:40:16;;;;;;;20.05;3.80;;;7.70;99.90;;;8.72;72.07;102321.69;5047812;28;20037;-85
2022/01/28 11:42:42;;;;;;;16.27;4.28;;;7.80;99.90;;;8.55;72.27;102316.69;5035627;28;20044;-81
2022/01/28 11:45:12;;;;;;;23.20;3.90;;;7.80;99.90;;;8.24;75.21;102324.69;5034669;28;20499;-81
2022/01/28 11:47:58;;;;;;;23.75;3.58;;;7.50;99.90;;;8.23;74.76;102314.66;5032372;28;20018;-84
2022/01/28 11:50:30;;;;;;;18.20;4.07;;;7.50;99.90;;;8.39;74.23;102318.06;5034360;28;20109;-83
2022/01/28 11:52:58;;;;;;;19.75;4.13;;;7.50;99.90;;;8.33;74.10;102308.13;5033028;28;20033;-83
2022/01/28 11:55:26;;;;;;;17.15;4.18;;;7.60;99.90;;;8.34;75.49;102310.63;5034965;28;20032;-83